createdAt,value
2022-11-29T00:01:24.601Z,2.74
2022-11-29T00:03:54.390Z,2.63
2022-11-29T00:06:24.205Z,2.64
2022-11-29T00:08:52.248Z,2.79
2022-11-29T00:11:37.186Z,2.73
2022-11-29T00:14:05.971Z,2.81
2022-11-29T00:16:34.244Z,2.90
2022-11-29T00:19:04.207Z,2.83
2022-11-29T00:21:32.135Z,2.99
2022-11-29T00:24:00.063Z,2.88
2022-11-29T00:26:28.315Z,2.82
2022-11-29T00:28:56.240Z,2.79
2022-11-29T00:31:26.243Z,2.96
2022-11-29T00:33:54.852Z,3.02
2022-11-29T00:36:24.274Z,2.99
2022-11-29T00:38:52.313Z,3.21
2022-11-29T00:41:20.381Z,3.14
2022-11-29T00:43:48.720Z,3.16
2022-11-29T00:46:16.720Z,3.01
2022-11-29T00:48:44.901Z,2.87
2022-11-29T00:51:13.264Z,2.88
2022-11-29T00:53:42.592Z,3.05
2022-11-29T00:56:10.511Z,2.73
2022-11-29T00:58:38.466Z,3.18
2022-11-29T01:01:07.196Z,3.25
2022-11-29T01:03:35.212Z,3.13
2022-11-29T01:06:03.550Z,3.15
2022-11-29T01:08:31.485Z,3.38
2022-11-29T01:11:06.266Z,3.46
2022-11-29T01:13:34.856Z,3.52
2022-11-29T01:16:03.284Z,3.56
2022-11-29T01:18:31.965Z,3.46
2022-11-29T01:21:01.443Z,3.18
2022-11-29T01:23:30.192Z,3.14
2022-11-29T01:26:03.008Z,3.09
2022-11-29T01:28:32.418Z,3.16
2022-11-29T01:31:00.432Z,2.94
2022-11-29T01:33:28.417Z,2.80
2022-11-29T01:35:56.468Z,2.86
2022-11-29T01:38:24.419Z,3.02
2022-11-29T01:41:00.633Z,3.02
2022-11-29T01:43:29.295Z,3.08
2022-11-29T01:45:58.899Z,3.15
2022-11-29T01:48:30.056Z,3.13
2022-11-29T01:51:02.392Z,3.18
2022-11-29T01:53:30.660Z,3.09
2022-11-29T01:56:03.813Z,2.91
2022-11-29T01:58:31.855Z,2.93
2022-11-29T02:01:02.430Z,3.03
2022-11-29T02:03:30.376Z,3.05
2022-11-29T02:05:58.347Z,3.02
2022-11-29T02:08:30.953Z,3.29
2022-11-29T02:11:17.016Z,3.35
2022-11-29T02:13:55.046Z,3.21
2022-11-29T02:16:29.851Z,3.23
2022-11-29T02:19:11.842Z,3.06
2022-11-29T02:21:48.161Z,3.07
2022-11-29T02:24:47.695Z,3.04
2022-11-29T02:27:58.242Z,3.05
2022-11-29T02:30:47.983Z,2.97
2022-11-29T02:33:35.255Z,3.10
2022-11-29T02:36:20.520Z,3.02
2022-11-29T02:39:18.045Z,2.92
2022-11-29T02:42:06.835Z,2.98
2022-11-29T02:45:00.284Z,2.74
2022-11-29T02:47:45.152Z,2.63
2022-11-29T02:50:37.815Z,2.68
2022-11-29T02:53:15.346Z,2.64
2022-11-29T02:55:48.265Z,2.82
2022-11-29T02:58:25.026Z,2.84
2022-11-29T03:01:02.301Z,2.89
2022-11-29T03:03:39.340Z,2.88
2022-11-29T03:06:19.891Z,2.90
2022-11-29T03:08:55.080Z,2.91
2022-11-29T03:11:31.300Z,2.79
2022-11-29T03:14:12.957Z,2.67
2022-11-29T03:16:47.955Z,2.56
2022-11-29T03:19:36.945Z,2.65
2022-11-29T03:22:13.448Z,2.48
2022-11-29T03:24:51.869Z,2.57
2022-11-29T03:27:25.051Z,2.70
2022-11-29T03:29:58.320Z,2.60
2022-11-29T03:32:31.740Z,2.41
2022-11-29T03:35:07.742Z,2.34
2022-11-29T03:37:45.462Z,2.45
2022-11-29T03:40:18.255Z,2.50
2022-11-29T03:42:52.928Z,2.42
2022-11-29T03:45:26.228Z,2.53
2022-11-29T03:48:01.280Z,2.57
2022-11-29T03:50:35.769Z,2.66
2022-11-29T03:53:14.943Z,2.67
2022-11-29T03:55:51.965Z,2.71
2022-11-29T03:58:33.863Z,2.75
2022-11-29T04:01:34.960Z,2.78
2022-11-29T04:04:24.848Z,2.86
2022-11-29T04:07:06.176Z,2.83
2022-11-29T04:09:57.569Z,2.53
2022-11-29T04:12:49.472Z,2.85
2022-11-29T04:15:54.578Z,2.78
2022-11-29T04:19:18.945Z,2.91
2022-11-29T04:22:09.347Z,2.87
2022-11-29T04:25:16.530Z,2.91
2022-11-29T04:28:16.308Z,2.79
2022-11-29T04:30:58.653Z,2.90
2022-11-29T04:33:54.235Z,2.80
2022-11-29T04:36:47.700Z,2.90
2022-11-29T04:39:33.455Z,2.91
2022-11-29T04:42:17.888Z,3.09
2022-11-29T04:45:00.268Z,3.16
2022-11-29T04:47:51.730Z,3.13
2022-11-29T04:50:32.565Z,2.92
2022-11-29T04:53:20.723Z,2.76
2022-11-29T04:55:59.245Z,2.88
2022-11-29T04:58:37.382Z,2.93
2022-11-29T05:01:13.511Z,2.90
2022-11-29T05:03:49.374Z,2.84
2022-11-29T05:06:28.466Z,2.86
2022-11-29T05:09:05.589Z,2.81
2022-11-29T05:11:45.779Z,2.72
2022-11-29T05:14:26.765Z,2.88
2022-11-29T05:17:01.666Z,3.01
2022-11-29T05:19:56.738Z,2.87
2022-11-29T05:22:27.952Z,2.79
2022-11-29T05:25:06.304Z,2.80
2022-11-29T05:27:44.801Z,2.59
2022-11-29T05:30:17.069Z,2.72
2022-11-29T05:32:58.896Z,2.76
2022-11-29T05:35:50.422Z,2.83
2022-11-29T05:38:57.437Z,2.88
2022-11-29T05:41:40.807Z,2.93
2022-11-29T05:44:13.839Z,2.98
2022-11-29T05:46:55.645Z,3.06
2022-11-29T05:49:32.440Z,3.01
2022-11-29T05:52:18.548Z,3.07
2022-11-29T05:54:57.621Z,2.89
2022-11-29T05:57:37.329Z,2.94
2022-11-29T06:00:07.801Z,2.85
2022-11-29T06:02:50.127Z,2.91
2022-11-29T06:05:24.151Z,2.84
2022-11-29T06:07:59.743Z,2.66
2022-11-29T06:10:33.031Z,2.75
2022-11-29T06:13:11.203Z,2.73
2022-11-29T06:15:58.968Z,2.71
2022-11-29T06:18:50.683Z,2.79
2022-11-29T06:21:30.133Z,2.87
2022-11-29T06:24:10.309Z,2.85
2022-11-29T06:26:52.623Z,2.78
2022-11-29T06:29:33.152Z,2.72
2022-11-29T06:32:12.295Z,2.89
2022-11-29T06:34:50.137Z,3.04
2022-11-29T06:37:24.296Z,3.20
2022-11-29T06:39:52.767Z,3.12
2022-11-29T06:42:20.680Z,3.15
2022-11-29T06:44:49.235Z,3.35
2022-11-29T06:47:24.899Z,3.34
2022-11-29T06:49:59.725Z,3.41
2022-11-29T06:52:38.868Z,3.48
2022-11-29T06:55:15.904Z,3.44
2022-11-29T06:58:05.990Z,3.51
2022-11-29T07:00:44.758Z,3.40
2022-11-29T07:03:53.500Z,3.41
2022-11-29T07:06:25.252Z,3.25
2022-11-29T07:08:57.704Z,3.23
2022-11-29T07:11:26.330Z,3.10
2022-11-29T07:13:54.808Z,3.29
2022-11-29T07:16:27.268Z,3.23
2022-11-29T07:19:04.876Z,3.11
2022-11-29T07:21:47.177Z,3.03
2022-11-29T07:24:26.337Z,2.97
2022-11-29T07:27:03.691Z,3.21
2022-11-29T07:29:40.812Z,3.16
2022-11-29T07:32:18.817Z,3.07
2022-11-29T07:34:57.341Z,2.96
2022-11-29T07:37:35.149Z,2.90
2022-11-29T07:40:10.460Z,2.91
2022-11-29T07:42:49.834Z,2.95
2022-11-29T07:45:25.129Z,2.99
2022-11-29T07:47:53.401Z,2.87
2022-11-29T07:50:22.493Z,2.76
2022-11-29T07:52:51.958Z,2.82
2022-11-29T07:55:22.138Z,2.95
2022-11-29T07:57:51.010Z,3.13
2022-11-29T08:00:20.437Z,3.18
2022-11-29T08:02:49.766Z,3.21
2022-11-29T08:05:18.588Z,3.14
2022-11-29T08:07:47.421Z,3.13
2022-11-29T08:10:17.876Z,3.24
2022-11-29T08:12:48.341Z,3.13
2022-11-29T08:15:16.479Z,3.33
2022-11-29T08:17:44.887Z,3.40
2022-11-29T08:20:14.115Z,3.45
2022-11-29T08:22:42.528Z,3.61
2022-11-29T08:25:11.764Z,3.59
2022-11-29T08:27:41.111Z,3.42
2022-11-29T08:30:10.032Z,3.50
2022-11-29T08:32:37.961Z,3.38
2022-11-29T08:35:06.352Z,3.24
2022-11-29T08:37:34.289Z,3.40
2022-11-29T08:40:04.628Z,3.48
2022-11-29T08:42:32.563Z,3.52
2022-11-29T08:45:01.866Z,3.50
2022-11-29T08:47:38.566Z,3.46
2022-11-29T08:50:12.289Z,3.45
2022-11-29T08:52:59.737Z,3.55
2022-11-29T08:55:31.743Z,3.58
2022-11-29T08:58:03.222Z,3.51
2022-11-29T09:00:33.489Z,3.48
2022-11-29T09:03:16.644Z,3.47
2022-11-29T09:05:44.840Z,3.38
2022-11-29T09:08:12.779Z,3.47
2022-11-29T09:10:41.734Z,3.58
2022-11-29T09:13:10.584Z,3.70
2022-11-29T09:15:40.365Z,3.75
2022-11-29T09:18:08.477Z,3.77
2022-11-29T09:20:36.593Z,3.81
2022-11-29T09:23:04.604Z,3.76
2022-11-29T09:25:32.616Z,3.72
2022-11-29T09:28:02.959Z,3.65
2022-11-29T09:30:31.733Z,3.68
2022-11-29T09:33:02.828Z,3.80
2022-11-29T09:35:31.028Z,3.92
2022-11-29T09:37:58.979Z,4.07
2022-11-29T09:40:32.648Z,4.04
2022-11-29T09:43:05.707Z,4.07
2022-11-29T09:45:42.053Z,4.23
2022-11-29T09:48:38.260Z,4.27
2022-11-29T09:51:19.981Z,4.08
2022-11-29T09:54:04.209Z,4.17
2022-11-29T09:56:38.544Z,4.10
2022-11-29T09:59:10.696Z,4.14
2022-11-29T10:01:41.929Z,4.03
2022-11-29T10:04:17.045Z,4.01
2022-11-29T10:06:50.521Z,3.88
2022-11-29T10:09:22.929Z,3.96
2022-11-29T10:12:04.247Z,4.00
2022-11-29T10:14:37.201Z,3.90
2022-11-29T10:17:13.896Z,3.89
2022-11-29T10:19:47.263Z,3.97
2022-11-29T10:22:21.240Z,3.88
2022-11-29T10:24:53.594Z,3.89
2022-11-29T10:27:25.039Z,3.87
2022-11-29T10:29:53.137Z,3.94
2022-11-29T10:32:23.303Z,4.04
2022-11-29T10:34:53.152Z,4.16
2022-11-29T10:37:22.947Z,4.12
2022-11-29T10:39:54.204Z,4.16
2022-11-29T10:42:42.067Z,4.07
2022-11-29T10:45:16.693Z,4.11
2022-11-29T10:47:47.181Z,4.21
2022-11-29T10:50:20.018Z,4.28
2022-11-29T10:52:47.993Z,4.31
2022-11-29T10:55:18.361Z,4.31
2022-11-29T10:58:09.235Z,4.39
2022-11-29T11:00:45.609Z,4.32
2022-11-29T11:03:28.474Z,4.28
2022-11-29T11:06:07.073Z,4.35
2022-11-29T11:08:36.311Z,4.37
2022-11-29T11:11:07.724Z,4.29
2022-11-29T11:13:37.017Z,4.27
2022-11-29T11:16:19.466Z,4.26
2022-11-29T11:18:49.420Z,4.35
2022-11-29T11:21:21.908Z,4.52
2022-11-29T11:23:55.774Z,4.62
2022-11-29T11:26:24.857Z,4.64
2022-11-29T11:28:58.020Z,4.57
2022-11-29T11:31:35.364Z,4.47
2022-11-29T11:34:29.645Z,4.51
2022-11-29T11:37:19.428Z,4.67
2022-11-29T11:39:49.130Z,4.73
2022-11-29T11:42:38.935Z,4.83
2022-11-29T11:45:27.680Z,4.83
2022-11-29T11:47:59.089Z,4.74
2022-11-29T11:50:30.850Z,4.89
2022-11-29T11:53:03.410Z,4.81
2022-11-29T11:55:39.014Z,4.81
2022-11-29T11:58:16.972Z,4.78
2022-11-29T12:01:03.502Z,4.66
2022-11-29T12:03:51.909Z,4.56
2022-11-29T12:06:33.421Z,4.47
2022-11-29T12:09:11.050Z,4.57
2022-11-29T12:11:44.814Z,4.64
2022-11-29T12:14:25.398Z,4.60
2022-11-29T12:17:02.983Z,4.69
2022-11-29T12:19:39.474Z,4.66
2022-11-29T12:22:15.341Z,4.71
2022-11-29T12:24:55.008Z,4.74
2022-11-29T12:27:23.116Z,4.66
2022-11-29T12:29:51.027Z,4.73
2022-11-29T12:32:50.101Z,4.83
2022-11-29T12:35:47.402Z,4.79
2022-11-29T12:38:34.097Z,4.63
2022-11-29T12:41:16.382Z,4.48
2022-11-29T12:43:54.636Z,4.44
2022-11-29T12:46:26.280Z,4.36
2022-11-29T12:49:02.118Z,4.59
2022-11-29T12:51:40.820Z,4.41
2022-11-29T12:54:38.456Z,4.52
2022-11-29T12:57:19.831Z,4.61
2022-11-29T13:00:02.347Z,4.66
2022-11-29T13:02:50.525Z,4.66
2022-11-29T13:05:27.484Z,4.72
2022-11-29T13:08:08.853Z,4.69
2022-11-29T13:10:49.567Z,4.67
2022-11-29T13:13:27.049Z,4.76
2022-11-29T13:16:04.478Z,4.82
2022-11-29T13:18:39.252Z,4.66
2022-11-29T13:21:14.465Z,4.72
2022-11-29T13:24:10.295Z,4.65
2022-11-29T13:26:40.065Z,4.57
2022-11-29T13:29:15.577Z,4.76
2022-11-29T13:31:44.376Z,4.78
2022-11-29T13:34:18.186Z,4.74
2022-11-29T13:36:58.194Z,4.88
2022-11-29T13:39:39.672Z,4.76
2022-11-29T13:42:14.464Z,4.88
2022-11-29T13:44:53.083Z,4.78
2022-11-29T13:47:21.878Z,4.75
2022-11-29T13:49:58.738Z,4.86
2022-11-29T13:52:39.158Z,4.77
2022-11-29T13:55:34.309Z,4.93
2022-11-29T13:58:22.496Z,5.00
2022-11-29T14:00:53.079Z,4.98
2022-11-29T14:03:29.812Z,5.02
2022-11-29T14:06:09.748Z,4.89
2022-11-29T14:09:10.833Z,5.13
2022-11-29T14:11:32.858Z,5.25
2022-11-29T14:14:05.845Z,5.21
2022-11-29T14:16:40.269Z,5.27
2022-11-29T14:19:22.170Z,5.16
2022-11-29T14:22:18.463Z,5.00
2022-11-29T14:24:58.973Z,5.11
2022-11-29T14:27:59.493Z,5.21
2022-11-29T14:30:46.271Z,5.12
2022-11-29T14:33:28.064Z,5.01
2022-11-29T14:36:18.183Z,4.90
2022-11-29T14:38:50.880Z,4.88
2022-11-29T14:41:28.048Z,4.85
2022-11-29T14:44:07.912Z,4.89
2022-11-29T14:46:36.785Z,4.71
2022-11-29T14:49:07.202Z,4.77
2022-11-29T14:51:36.198Z,4.87
2022-11-29T14:54:09.101Z,4.97
2022-11-29T14:56:43.443Z,4.56
2022-11-29T14:59:29.655Z,4.85
2022-11-29T15:01:58.010Z,4.82
2022-11-29T15:04:28.129Z,4.82
2022-11-29T15:06:58.269Z,4.81
2022-11-29T15:09:28.816Z,4.89
2022-11-29T15:12:00.510Z,4.78
2022-11-29T15:14:41.386Z,4.71
2022-11-29T15:17:22.030Z,4.72
2022-11-29T15:20:07.531Z,4.87
2022-11-29T15:22:46.383Z,4.76
2022-11-29T15:25:17.344Z,4.76
2022-11-29T15:27:55.770Z,4.70
2022-11-29T15:30:35.034Z,4.70
2022-11-29T15:33:06.135Z,4.71
2022-11-29T15:35:37.128Z,4.65
2022-11-29T15:38:05.378Z,4.71
2022-11-29T15:40:35.728Z,4.56
2022-11-29T15:43:16.622Z,4.65
2022-11-29T15:45:48.680Z,4.69
2022-11-29T15:48:20.083Z,4.69
2022-11-29T15:50:58.924Z,4.62
2022-11-29T15:53:30.270Z,4.60
2022-11-29T15:56:01.100Z,4.53
2022-11-29T15:58:31.860Z,4.71
2022-11-29T16:01:01.553Z,4.68
2022-11-29T16:03:31.998Z,4.70
2022-11-29T16:06:09.635Z,4.68
2022-11-29T16:08:42.246Z,4.64
2022-11-29T16:11:17.478Z,4.58
2022-11-29T16:14:03.790Z,4.61
2022-11-29T16:16:35.599Z,4.61
2022-11-29T16:19:12.257Z,4.59
2022-11-29T16:21:44.802Z,4.44
2022-11-29T16:24:15.254Z,4.60
2022-11-29T16:26:46.204Z,4.61
2022-11-29T16:29:24.655Z,4.74
2022-11-29T16:31:53.867Z,4.75
2022-11-29T16:34:27.293Z,4.74
2022-11-29T16:37:05.767Z,4.57
2022-11-29T16:39:35.142Z,4.63
2022-11-29T16:42:08.441Z,4.54
2022-11-29T16:44:58.626Z,4.61
2022-11-29T16:47:28.199Z,4.54
2022-11-29T16:50:15.794Z,4.39
2022-11-29T16:52:45.776Z,4.60
2022-11-29T16:55:13.813Z,4.47
2022-11-29T16:57:41.930Z,4.56
2022-11-29T17:00:31.416Z,4.53
2022-11-29T17:02:59.783Z,4.55
2022-11-29T17:05:28.333Z,4.57
2022-11-29T17:07:57.913Z,4.47
2022-11-29T17:10:26.747Z,4.47
2022-11-29T17:12:54.681Z,4.47
2022-11-29T17:15:22.633Z,4.53
2022-11-29T17:17:50.589Z,4.50
2022-11-29T17:20:18.567Z,4.32
2022-11-29T17:22:46.491Z,4.33
2022-11-29T17:25:15.803Z,4.40
2022-11-29T17:27:43.782Z,4.40
2022-11-29T17:30:12.773Z,4.42
2022-11-29T17:32:40.713Z,4.51
2022-11-29T17:35:09.021Z,4.53
2022-11-29T17:37:36.965Z,4.49
2022-11-29T17:40:05.470Z,4.56
2022-11-29T17:42:34.745Z,4.43
2022-11-29T17:45:02.677Z,4.37
2022-11-29T17:47:30.606Z,4.52
2022-11-29T17:49:58.984Z,4.52
2022-11-29T17:52:26.943Z,4.47
2022-11-29T17:54:54.867Z,4.36
2022-11-29T17:57:22.809Z,4.50
2022-11-29T17:59:52.156Z,4.36
2022-11-29T18:02:20.139Z,4.34
2022-11-29T18:04:48.093Z,4.34
2022-11-29T18:07:17.310Z,4.30
2022-11-29T18:09:46.952Z,4.43
2022-11-29T18:12:15.052Z,4.44
2022-11-29T18:14:43.006Z,4.45
2022-11-29T18:17:12.662Z,4.48
2022-11-29T18:19:40.741Z,4.41
2022-11-29T18:22:08.757Z,4.39
2022-11-29T18:24:36.718Z,4.41
2022-11-29T18:27:04.809Z,4.37
2022-11-29T18:29:38.281Z,4.53
2022-11-29T18:32:07.193Z,4.46
2022-11-29T18:34:36.494Z,4.40
2022-11-29T18:37:04.413Z,4.35
2022-11-29T18:39:32.388Z,4.53
2022-11-29T18:42:00.320Z,4.34
2022-11-29T18:44:30.307Z,4.31
2022-11-29T18:46:58.868Z,4.37
2022-11-29T18:49:26.787Z,4.42
2022-11-29T18:51:56.215Z,4.23
2022-11-29T18:54:24.133Z,4.23
2022-11-29T18:56:52.781Z,4.30
2022-11-29T18:59:22.096Z,4.15
2022-11-29T19:01:50.450Z,4.24
2022-11-29T19:04:20.098Z,4.30
2022-11-29T19:06:48.860Z,4.25
2022-11-29T19:09:21.014Z,4.45
2022-11-29T19:11:49.979Z,4.50
2022-11-29T19:14:18.346Z,4.39
2022-11-29T19:16:47.902Z,4.41
2022-11-29T19:19:15.884Z,4.40
2022-11-29T19:21:43.861Z,4.36
2022-11-29T19:24:18.211Z,4.44
2022-11-29T19:26:48.633Z,4.58
2022-11-29T19:29:17.254Z,4.48
2022-11-29T19:31:45.296Z,4.33
2022-11-29T19:34:13.245Z,4.27
2022-11-29T19:36:43.591Z,4.40
2022-11-29T19:39:13.425Z,4.43
2022-11-29T19:41:43.514Z,4.41
2022-11-29T19:44:13.545Z,4.34
2022-11-29T19:46:43.355Z,4.29
2022-11-29T19:49:11.838Z,4.22
2022-11-29T19:51:40.035Z,4.35
2022-11-29T19:54:09.611Z,4.17
2022-11-29T19:56:38.919Z,4.35
2022-11-29T19:59:07.800Z,4.43
2022-11-29T20:01:41.409Z,4.24
2022-11-29T20:04:10.748Z,4.25
2022-11-29T20:06:38.886Z,4.26
2022-11-29T20:09:07.677Z,4.20
2022-11-29T20:11:35.666Z,4.16
2022-11-29T20:14:05.306Z,4.10
2022-11-29T20:16:33.985Z,4.15
2022-11-29T20:19:03.390Z,4.22
2022-11-29T20:21:33.867Z,4.10
2022-11-29T20:24:03.070Z,4.22
2022-11-29T20:26:32.799Z,4.31
2022-11-29T20:29:02.169Z,4.29
2022-11-29T20:31:30.897Z,4.23
2022-11-29T20:33:59.172Z,4.33
2022-11-29T20:36:39.316Z,4.20
2022-11-29T20:39:18.758Z,4.05
2022-11-29T20:41:57.681Z,4.10
2022-11-29T20:44:34.914Z,4.10
2022-11-29T20:47:09.454Z,4.02
2022-11-29T20:49:37.887Z,4.10
2022-11-29T20:52:12.301Z,4.09
2022-11-29T20:54:40.271Z,4.03
2022-11-29T20:57:09.328Z,4.12
2022-11-29T20:59:37.461Z,4.13
2022-11-29T21:02:05.403Z,4.17
2022-11-29T21:04:33.369Z,4.16
2022-11-29T21:07:01.530Z,4.15
2022-11-29T21:09:30.946Z,4.08
2022-11-29T21:11:59.443Z,4.02
2022-11-29T21:14:27.905Z,4.04
2022-11-29T21:16:56.285Z,4.08
2022-11-29T21:19:27.140Z,4.09
2022-11-29T21:22:04.399Z,4.21
2022-11-29T21:24:42.888Z,4.08
2022-11-29T21:27:15.540Z,3.99
2022-11-29T21:29:44.018Z,4.09
2022-11-29T21:32:22.161Z,4.11
2022-11-29T21:34:50.143Z,4.11
2022-11-29T21:37:19.897Z,4.06
2022-11-29T21:39:51.726Z,4.00
2022-11-29T21:42:19.850Z,4.01
2022-11-29T21:44:48.011Z,4.00
2022-11-29T21:47:16.411Z,3.94
2022-11-29T21:49:44.419Z,3.93
2022-11-29T21:52:14.421Z,4.01
2022-11-29T21:54:45.986Z,4.01
2022-11-29T21:57:15.572Z,4.10
2022-11-29T21:59:43.653Z,4.05
2022-11-29T22:02:11.766Z,4.14
2022-11-29T22:04:39.810Z,4.07
2022-11-29T22:07:07.775Z,3.97
2022-11-29T22:09:35.765Z,3.99
2022-11-29T22:12:19.523Z,4.05
2022-11-29T22:14:53.073Z,4.09
2022-11-29T22:17:21.093Z,4.00
2022-11-29T22:19:49.074Z,4.02
2022-11-29T22:22:17.269Z,4.12
2022-11-29T22:24:45.560Z,4.01
2022-11-29T22:27:13.789Z,4.15
2022-11-29T22:29:41.909Z,4.25
2022-11-29T22:32:11.296Z,4.14
2022-11-29T22:34:39.219Z,4.34
2022-11-29T22:37:07.309Z,4.22
2022-11-29T22:39:35.333Z,4.19
2022-11-29T22:42:03.468Z,4.31
2022-11-29T22:44:31.403Z,4.34
2022-11-29T22:46:59.379Z,4.36
2022-11-29T22:49:30.096Z,3.96
2022-11-29T22:51:58.047Z,4.09
2022-11-29T22:54:26.053Z,4.08
2022-11-29T22:56:53.992Z,3.95
2022-11-29T22:59:21.963Z,3.90
2022-11-29T23:01:49.995Z,3.81
2022-11-29T23:04:17.942Z,3.98
2022-11-29T23:06:47.602Z,4.00
2022-11-29T23:09:19.920Z,3.98
2022-11-29T23:11:52.076Z,4.03
2022-11-29T23:14:20.565Z,4.22
2022-11-29T23:16:48.644Z,4.04
2022-11-29T23:19:16.593Z,4.16
2022-11-29T23:21:46.305Z,4.10
2022-11-29T23:24:16.645Z,4.11
2022-11-29T23:26:46.873Z,4.12
2022-11-29T23:29:17.053Z,4.01
2022-11-29T23:31:45.336Z,4.02
2022-11-29T23:34:13.485Z,4.10
2022-11-29T23:36:41.601Z,4.13
2022-11-29T23:39:09.657Z,4.09
2022-11-29T23:41:38.988Z,4.04
2022-11-29T23:44:08.770Z,3.92
2022-11-29T23:46:37.344Z,3.94
2022-11-29T23:49:05.416Z,3.99
2022-11-29T23:51:33.340Z,3.77
2022-11-29T23:54:01.315Z,3.98
2022-11-29T23:56:29.349Z,4.12
2022-11-29T23:58:58.754Z,4.02
